sensor_id;sensor_type;location;lat;lon;timestamp;temperature;humidity
52073;DHT22;38074;51.232;6.826;2023-04-07T00:05:19;23.40;38.80
52073;DHT22;38074;51.232;6.826;2023-04-07T00:12:35;23.30;38.80
52073;DHT22;38074;51.232;6.826;2023-04-07T00:19:50;23.30;38.80
52073;DHT22;38074;51.232;6.826;2023-04-07T00:27:06;23.30;38.80
52073;DHT22;38074;51.232;6.826;2023-04-07T00:34:21;23.30;38.90
52073;DHT22;38074;51.232;6.826;2023-04-07T00:41:37;23.30;38.90
52073;DHT22;38074;51.232;6.826;2023-04-07T00:48:52;23.30;38.90
52073;DHT22;38074;51.232;6.826;2023-04-07T00:56:08;23.30;38.90
52073;DHT22;38074;51.232;6.826;2023-04-07T01:03:33;23.30;38.80
52073;DHT22;38074;51.232;6.826;2023-04-07T01:11:07;23.30;38.90
52073;DHT22;38074;51.232;6.826;2023-04-07T01:18:26;23.30;38.90
52073;DHT22;38074;51.232;6.826;2023-04-07T01:25:57;23.30;38.90
52073;DHT22;38074;51.232;6.826;2023-04-07T01:33:15;23.30;38.90
52073;DHT22;38074;51.232;6.826;2023-04-07T01:40:33;23.30;38.90
52073;DHT22;38074;51.232;6.826;2023-04-07T01:47:49;23.30;39.00
52073;DHT22;38074;51.232;6.826;2023-04-07T01:55:06;23.30;38.90
52073;DHT22;38074;51.232;6.826;2023-04-07T02:02:21;23.30;38.90
52073;DHT22;38074;51.232;6.826;2023-04-07T02:09:39;23.30;38.90
52073;DHT22;38074;51.232;6.826;2023-04-07T02:16:58;23.30;39.00
52073;DHT22;38074;51.232;6.826;2023-04-07T02:24:19;23.30;39.00
52073;DHT22;38074;51.232;6.826;2023-04-07T02:31:35;23.30;39.00
52073;DHT22;38074;51.232;6.826;2023-04-07T02:38:51;23.30;39.10
52073;DHT22;38074;51.232;6.826;2023-04-07T02:46:06;23.30;39.10
52073;DHT22;38074;51.232;6.826;2023-04-07T02:53:22;23.30;39.10
52073;DHT22;38074;51.232;6.826;2023-04-07T03:00:37;23.30;39.10
52073;DHT22;38074;51.232;6.826;2023-04-07T03:07:53;23.30;39.10
52073;DHT22;38074;51.232;6.826;2023-04-07T03:15:08;23.30;39.10
52073;DHT22;38074;51.232;6.826;2023-04-07T03:22:24;23.30;39.20
52073;DHT22;38074;51.232;6.826;2023-04-07T03:29:39;23.30;39.20
52073;DHT22;38074;51.232;6.826;2023-04-07T03:36:55;23.30;39.20
52073;DHT22;38074;51.232;6.826;2023-04-07T03:44:11;23.30;39.30
52073;DHT22;38074;51.232;6.826;2023-04-07T03:51:26;23.30;39.20
52073;DHT22;38074;51.232;6.826;2023-04-07T03:58:42;23.30;39.30
52073;DHT22;38074;51.232;6.826;2023-04-07T04:05:59;23.30;39.30
52073;DHT22;38074;51.232;6.826;2023-04-07T04:13:15;23.30;39.30
52073;DHT22;38074;51.232;6.826;2023-04-07T04:20:30;23.30;39.30
52073;DHT22;38074;51.232;6.826;2023-04-07T04:27:46;23.30;39.40
52073;DHT22;38074;51.232;6.826;2023-04-07T04:35:02;23.30;39.40
52073;DHT22;38074;51.232;6.826;2023-04-07T04:42:17;23.30;39.30
52073;DHT22;38074;51.232;6.826;2023-04-07T04:49:33;23.20;39.30
52073;DHT22;38074;51.232;6.826;2023-04-07T04:56:48;23.30;39.40
52073;DHT22;38074;51.232;6.826;2023-04-07T05:04:04;23.20;39.40
52073;DHT22;38074;51.232;6.826;2023-04-07T05:11:20;23.20;39.40
52073;DHT22;38074;51.232;6.826;2023-04-07T05:18:35;23.20;39.40
52073;DHT22;38074;51.232;6.826;2023-04-07T05:25:51;23.30;39.50
52073;DHT22;38074;51.232;6.826;2023-04-07T05:33:07;23.20;39.50
52073;DHT22;38074;51.232;6.826;2023-04-07T05:40:22;23.30;39.50
52073;DHT22;38074;51.232;6.826;2023-04-07T05:47:38;23.20;39.50
52073;DHT22;38074;51.232;6.826;2023-04-07T05:54:54;23.30;39.50
52073;DHT22;38074;51.232;6.826;2023-04-07T06:02:10;23.30;39.60
52073;DHT22;38074;51.232;6.826;2023-04-07T06:09:26;23.20;39.50
52073;DHT22;38074;51.232;6.826;2023-04-07T06:16:42;23.30;39.60
52073;DHT22;38074;51.232;6.826;2023-04-07T06:23:57;23.20;39.60
52073;DHT22;38074;51.232;6.826;2023-04-07T06:31:13;23.30;39.60
52073;DHT22;38074;51.232;6.826;2023-04-07T06:38:28;23.30;39.70
52073;DHT22;38074;51.232;6.826;2023-04-07T06:45:44;23.30;39.70
52073;DHT22;38074;51.232;6.826;2023-04-07T06:53:00;23.30;39.70
52073;DHT22;38074;51.232;6.826;2023-04-07T07:00:16;23.30;39.70
52073;DHT22;38074;51.232;6.826;2023-04-07T07:07:31;23.30;39.70
52073;DHT22;38074;51.232;6.826;2023-04-07T07:14:47;23.30;39.80
52073;DHT22;38074;51.232;6.826;2023-04-07T07:22:02;23.30;39.90
52073;DHT22;38074;51.232;6.826;2023-04-07T07:29:19;23.30;39.90
52073;DHT22;38074;51.232;6.826;2023-04-07T07:36:34;23.30;39.90
52073;DHT22;38074;51.232;6.826;2023-04-07T07:43:50;23.30;39.90
52073;DHT22;38074;51.232;6.826;2023-04-07T07:51:05;23.30;40.00
52073;DHT22;38074;51.232;6.826;2023-04-07T07:58:21;23.30;40.10
52073;DHT22;38074;51.232;6.826;2023-04-07T08:05:37;23.40;40.00
52073;DHT22;38074;51.232;6.826;2023-04-07T08:12:52;23.50;40.10
52073;DHT22;38074;51.232;6.826;2023-04-07T08:20:08;23.60;40.40
52073;DHT22;38074;51.232;6.826;2023-04-07T08:27:25;23.50;40.60
52073;DHT22;38074;51.232;6.826;2023-04-07T08:34:40;23.40;40.70
52073;DHT22;38074;51.232;6.826;2023-04-07T08:41:56;23.40;40.70
52073;DHT22;38074;51.232;6.826;2023-04-07T08:49:12;23.40;40.80
52073;DHT22;38074;51.232;6.826;2023-04-07T08:56:32;23.30;40.70
52073;DHT22;38074;51.232;6.826;2023-04-07T09:03:48;23.30;40.70
52073;DHT22;38074;51.232;6.826;2023-04-07T09:11:04;23.30;40.70
52073;DHT22;38074;51.232;6.826;2023-04-07T09:18:19;23.30;40.50
52073;DHT22;38074;51.232;6.826;2023-04-07T09:25:35;23.20;40.40
52073;DHT22;38074;51.232;6.826;2023-04-07T09:32:51;23.30;40.60
52073;DHT22;38074;51.232;6.826;2023-04-07T09:40:07;23.30;40.60
52073;DHT22;38074;51.232;6.826;2023-04-07T09:47:27;23.30;40.70
52073;DHT22;38074;51.232;6.826;2023-04-07T09:54:43;23.30;40.70
52073;DHT22;38074;51.232;6.826;2023-04-07T10:01:59;23.30;40.70
52073;DHT22;38074;51.232;6.826;2023-04-07T10:09:15;23.30;40.70
52073;DHT22;38074;51.232;6.826;2023-04-07T10:16:32;23.30;40.70
52073;DHT22;38074;51.232;6.826;2023-04-07T10:24:13;23.30;40.70
52073;DHT22;38074;51.232;6.826;2023-04-07T10:31:36;23.30;40.70
52073;DHT22;38074;51.232;6.826;2023-04-07T10:46:23;23.30;40.70
52073;DHT22;38074;51.232;6.826;2023-04-07T11:01:33;23.30;40.70
52073;DHT22;38074;51.232;6.826;2023-04-07T11:08:48;23.30;40.70
52073;DHT22;38074;51.232;6.826;2023-04-07T11:16:05;23.30;40.60
52073;DHT22;38074;51.232;6.826;2023-04-07T11:23:22;23.20;40.60
52073;DHT22;38074;51.232;6.826;2023-04-07T11:30:46;23.30;40.50
52073;DHT22;38074;51.232;6.826;2023-04-07T11:38:03;23.20;40.40
52073;DHT22;38074;51.232;6.826;2023-04-07T11:45:19;23.20;40.50
52073;DHT22;38074;51.232;6.826;2023-04-07T11:52:47;23.30;40.50
52073;DHT22;38074;51.232;6.826;2023-04-07T12:00:10;23.30;40.40
52073;DHT22;38074;51.232;6.826;2023-04-07T12:07:29;23.30;40.40
52073;DHT22;38074;51.232;6.826;2023-04-07T12:14:45;23.20;40.30
52073;DHT22;38074;51.232;6.826;2023-04-07T12:22:02;23.30;40.40
52073;DHT22;38074;51.232;6.826;2023-04-07T12:29:18;23.30;40.40
52073;DHT22;38074;51.232;6.826;2023-04-07T12:36:34;23.30;40.30
52073;DHT22;38074;51.232;6.826;2023-04-07T12:43:50;23.20;40.20
52073;DHT22;38074;51.232;6.826;2023-04-07T12:51:06;23.30;40.30
52073;DHT22;38074;51.232;6.826;2023-04-07T12:58:21;23.30;40.20
52073;DHT22;38074;51.232;6.826;2023-04-07T13:05:37;23.30;40.20
52073;DHT22;38074;51.232;6.826;2023-04-07T13:12:53;23.30;40.20
52073;DHT22;38074;51.232;6.826;2023-04-07T13:20:08;23.30;40.20
52073;DHT22;38074;51.232;6.826;2023-04-07T13:27:24;23.30;40.10
52073;DHT22;38074;51.232;6.826;2023-04-07T13:34:39;23.30;40.10
52073;DHT22;38074;51.232;6.826;2023-04-07T13:41:56;23.30;40.10
52073;DHT22;38074;51.232;6.826;2023-04-07T13:49:12;23.30;40.10
52073;DHT22;38074;51.232;6.826;2023-04-07T13:56:29;23.30;40.10
52073;DHT22;38074;51.232;6.826;2023-04-07T14:03:45;23.30;40.10
52073;DHT22;38074;51.232;6.826;2023-04-07T14:11:01;23.30;40.10
52073;DHT22;38074;51.232;6.826;2023-04-07T14:18:17;23.30;40.10
52073;DHT22;38074;51.232;6.826;2023-04-07T14:25:32;23.30;40.20
52073;DHT22;38074;51.232;6.826;2023-04-07T14:32:48;23.30;40.10
52073;DHT22;38074;51.232;6.826;2023-04-07T14:40:04;23.30;40.10
52073;DHT22;38074;51.232;6.826;2023-04-07T14:47:20;23.30;40.10
52073;DHT22;38074;51.232;6.826;2023-04-07T14:54:36;23.30;40.10
52073;DHT22;38074;51.232;6.826;2023-04-07T15:01:51;23.30;40.10
52073;DHT22;38074;51.232;6.826;2023-04-07T15:09:07;23.30;40.10
52073;DHT22;38074;51.232;6.826;2023-04-07T15:16:23;23.30;40.10
52073;DHT22;38074;51.232;6.826;2023-04-07T15:23:38;23.30;40.10
52073;DHT22;38074;51.232;6.826;2023-04-07T15:30:55;23.30;40.10
52073;DHT22;38074;51.232;6.826;2023-04-07T15:38:11;23.30;40.00
52073;DHT22;38074;51.232;6.826;2023-04-07T15:45:27;23.30;40.00
52073;DHT22;38074;51.232;6.826;2023-04-07T15:52:42;23.30;40.00
52073;DHT22;38074;51.232;6.826;2023-04-07T15:59:58;23.30;40.00
52073;DHT22;38074;51.232;6.826;2023-04-07T16:07:13;23.30;40.00
52073;DHT22;38074;51.232;6.826;2023-04-07T16:14:29;23.30;40.00
52073;DHT22;38074;51.232;6.826;2023-04-07T16:21:45;23.30;40.00
52073;DHT22;38074;51.232;6.826;2023-04-07T16:29:01;23.20;39.90
52073;DHT22;38074;51.232;6.826;2023-04-07T16:36:16;23.20;40.30
52073;DHT22;38074;51.232;6.826;2023-04-07T16:43:32;23.20;39.90
52073;DHT22;38074;51.232;6.826;2023-04-07T16:50:47;23.20;39.90
52073;DHT22;38074;51.232;6.826;2023-04-07T16:58:03;23.20;39.90
52073;DHT22;38074;51.232;6.826;2023-04-07T17:05:18;23.20;39.90
52073;DHT22;38074;51.232;6.826;2023-04-07T17:12:34;23.20;39.90
52073;DHT22;38074;51.232;6.826;2023-04-07T17:19:49;23.20;39.90
52073;DHT22;38074;51.232;6.826;2023-04-07T17:27:05;23.20;39.90
52073;DHT22;38074;51.232;6.826;2023-04-07T17:34:21;23.20;39.90
52073;DHT22;38074;51.232;6.826;2023-04-07T17:41:36;23.20;40.00
52073;DHT22;38074;51.232;6.826;2023-04-07T17:48:52;23.20;39.90
52073;DHT22;38074;51.232;6.826;2023-04-07T17:56:09;23.20;39.90
52073;DHT22;38074;51.232;6.826;2023-04-07T18:03:24;23.20;39.90
52073;DHT22;38074;51.232;6.826;2023-04-07T18:10:40;23.20;39.90
52073;DHT22;38074;51.232;6.826;2023-04-07T18:17:56;23.20;40.00
52073;DHT22;38074;51.232;6.826;2023-04-07T18:25:12;23.20;40.00
52073;DHT22;38074;51.232;6.826;2023-04-07T18:32:27;23.20;40.00
52073;DHT22;38074;51.232;6.826;2023-04-07T18:39:43;23.20;40.00
52073;DHT22;38074;51.232;6.826;2023-04-07T18:46:59;23.20;40.00
52073;DHT22;38074;51.232;6.826;2023-04-07T18:54:16;23.20;40.00
52073;DHT22;38074;51.232;6.826;2023-04-07T19:01:32;23.20;40.00
52073;DHT22;38074;51.232;6.826;2023-04-07T19:08:47;23.20;40.00
52073;DHT22;38074;51.232;6.826;2023-04-07T19:16:05;23.20;40.00
52073;DHT22;38074;51.232;6.826;2023-04-07T19:23:21;23.20;39.90
52073;DHT22;38074;51.232;6.826;2023-04-07T19:30:37;23.20;40.00
52073;DHT22;38074;51.232;6.826;2023-04-07T19:37:52;23.20;40.00
52073;DHT22;38074;51.232;6.826;2023-04-07T19:45:08;23.20;40.00
52073;DHT22;38074;51.232;6.826;2023-04-07T19:52:24;23.20;40.40
52073;DHT22;38074;51.232;6.826;2023-04-07T19:59:40;23.20;40.00
52073;DHT22;38074;51.232;6.826;2023-04-07T20:06:56;23.20;40.00
52073;DHT22;38074;51.232;6.826;2023-04-07T20:14:11;23.20;40.00
52073;DHT22;38074;51.232;6.826;2023-04-07T20:21:26;23.20;40.00
52073;DHT22;38074;51.232;6.826;2023-04-07T20:28:42;23.20;40.00
52073;DHT22;38074;51.232;6.826;2023-04-07T20:35:58;23.20;40.00
52073;DHT22;38074;51.232;6.826;2023-04-07T20:43:13;23.20;40.00
52073;DHT22;38074;51.232;6.826;2023-04-07T20:50:32;23.20;40.00
52073;DHT22;38074;51.232;6.826;2023-04-07T20:57:48;23.20;40.00
52073;DHT22;38074;51.232;6.826;2023-04-07T21:05:04;23.20;40.00
52073;DHT22;38074;51.232;6.826;2023-04-07T21:12:20;23.20;40.00
52073;DHT22;38074;51.232;6.826;2023-04-07T21:19:35;23.20;40.00
52073;DHT22;38074;51.232;6.826;2023-04-07T21:26:54;23.20;40.00
52073;DHT22;38074;51.232;6.826;2023-04-07T21:34:10;23.20;40.00
52073;DHT22;38074;51.232;6.826;2023-04-07T21:41:25;23.20;40.00
52073;DHT22;38074;51.232;6.826;2023-04-07T21:48:41;23.20;40.70
52073;DHT22;38074;51.232;6.826;2023-04-07T21:55:57;23.20;40.00
52073;DHT22;38074;51.232;6.826;2023-04-07T22:03:12;23.10;40.00
52073;DHT22;38074;51.232;6.826;2023-04-07T22:10:28;23.20;40.00
52073;DHT22;38074;51.232;6.826;2023-04-07T22:17:43;23.20;40.70
52073;DHT22;38074;51.232;6.826;2023-04-07T22:24:59;23.10;40.00
52073;DHT22;38074;51.232;6.826;2023-04-07T22:32:14;23.20;40.00
52073;DHT22;38074;51.232;6.826;2023-04-07T22:39:30;23.20;40.00
52073;DHT22;38074;51.232;6.826;2023-04-07T22:46:46;23.10;40.00
52073;DHT22;38074;51.232;6.826;2023-04-07T22:54:01;23.20;40.00
52073;DHT22;38074;51.232;6.826;2023-04-07T23:01:17;23.20;40.10
52073;DHT22;38074;51.232;6.826;2023-04-07T23:08:32;23.20;40.10
52073;DHT22;38074;51.232;6.826;2023-04-07T23:15:48;23.20;40.00
52073;DHT22;38074;51.232;6.826;2023-04-07T23:23:03;23.10;40.00
52073;DHT22;38074;51.232;6.826;2023-04-07T23:30:19;23.10;40.00
52073;DHT22;38074;51.232;6.826;2023-04-07T23:37:34;23.10;40.00
52073;DHT22;38074;51.232;6.826;2023-04-07T23:44:50;23.10;40.00
52073;DHT22;38074;51.232;6.826;2023-04-07T23:52:06;23.10;40.00
52073;DHT22;38074;51.232;6.826;2023-04-07T23:59:21;23.10;40.00
